Terminal Aerodrome Forecast
Issued by NWS

Home | Current Version | Previous Version | Text Only | Print | Product List | Glossary On
Versions: 1 2 3 4 5 6 7 8 9 10 11 12 13 14 15 16 17 18 19 20 21 22
000
FTAK31 PAFA 250735 AAA
TAFAFA
TAF AMD
PAFA 250735Z 2508/2612 25005KT P6SM VCSH BKN035 OVC060
     FM251900 VRB03KT 5SM -SHRA BR FU BKN025 BKN050 OVC090
     FM260200 22004KT P6SM -SHRA SCT025 BKN050 OVC090
     FM260600 34004KT P6SM VCSH FEW020 BKN050 OVC090=

USA.gov is the U.S. government's official web portal to all federal, state and local government web resources and services.